createdAt,value
2022-11-22T00:01:06.062Z,28.53
2022-11-22T00:03:36.606Z,28.36
2022-11-22T00:06:07.809Z,28.60
2022-11-22T00:08:39.109Z,28.67
2022-11-22T00:11:10.240Z,28.71
2022-11-22T00:13:41.580Z,28.74
2022-11-22T00:16:14.014Z,28.77
2022-11-22T00:18:46.108Z,28.81
2022-11-22T00:21:17.172Z,28.80
2022-11-22T00:23:48.301Z,28.78
2022-11-22T00:26:19.686Z,28.85
2022-11-22T00:28:51.177Z,28.86
2022-11-22T00:31:22.352Z,28.92
2022-11-22T00:33:53.471Z,28.93
2022-11-22T00:36:25.209Z,28.92
2022-11-22T00:38:56.108Z,28.73
2022-11-22T00:41:27.031Z,28.83
2022-11-22T00:43:58.807Z,28.99
2022-11-22T00:46:29.983Z,28.95
2022-11-22T00:49:01.559Z,28.99
2022-11-22T00:51:32.775Z,28.91
2022-11-22T00:54:04.272Z,29.03
2022-11-22T00:56:35.712Z,29.08
2022-11-22T00:59:07.076Z,29.05
2022-11-22T01:01:38.201Z,29.15
2022-11-22T01:04:09.367Z,29.06
2022-11-22T01:06:40.634Z,29.04
2022-11-22T01:09:12.781Z,28.87
2022-11-22T01:11:44.493Z,28.92
2022-11-22T01:14:16.111Z,29.17
2022-11-22T01:16:48.072Z,29.26
2022-11-22T01:19:19.222Z,29.27
2022-11-22T01:21:50.542Z,29.29
2022-11-22T01:24:21.678Z,29.20
2022-11-22T01:26:52.851Z,29.31
2022-11-22T01:29:24.525Z,29.31
2022-11-22T01:31:55.692Z,29.32
2022-11-22T01:34:27.420Z,29.33
2022-11-22T01:36:58.807Z,29.34
2022-11-22T01:39:30.116Z,29.01
2022-11-22T01:42:01.404Z,29.32
2022-11-22T01:44:34.899Z,29.35
2022-11-22T01:47:23.258Z,29.29
2022-11-22T01:49:59.475Z,29.02
2022-11-22T01:52:34.577Z,29.22
2022-11-22T01:55:13.327Z,29.39
2022-11-22T01:57:46.691Z,29.35
2022-11-22T02:00:19.694Z,28.88
2022-11-22T02:02:58.149Z,28.96
2022-11-22T02:05:34.997Z,29.44
2022-11-22T02:08:29.789Z,29.33
2022-11-22T02:11:04.177Z,29.42
2022-11-22T02:13:40.916Z,28.49
2022-11-22T02:16:13.695Z,28.93
2022-11-22T02:18:45.151Z,29.44
2022-11-22T02:21:16.474Z,29.43
2022-11-22T02:24:07.062Z,29.38
2022-11-22T02:26:38.797Z,29.39
2022-11-22T02:29:10.614Z,29.38
2022-11-22T02:31:49.432Z,29.46
2022-11-22T02:34:20.537Z,29.47
2022-11-22T02:36:55.376Z,29.05
2022-11-22T02:39:33.020Z,29.52
2022-11-22T02:42:04.974Z,29.50
2022-11-22T02:44:36.665Z,29.48
2022-11-22T02:47:08.607Z,29.51
2022-11-22T02:49:39.685Z,29.51
2022-11-22T02:52:11.506Z,29.52
2022-11-22T02:54:42.576Z,29.50
2022-11-22T02:57:13.906Z,29.48
2022-11-22T02:59:45.571Z,29.43
2022-11-22T03:02:16.723Z,29.50
2022-11-22T03:04:49.253Z,29.59
2022-11-22T03:07:20.903Z,29.57
2022-11-22T03:09:52.186Z,29.56
2022-11-22T03:12:23.353Z,29.60
2022-11-22T03:14:54.893Z,29.60
2022-11-22T03:17:26.272Z,29.55
2022-11-22T03:19:57.325Z,29.60
2022-11-22T03:22:28.509Z,29.56
2022-11-22T03:24:59.700Z,29.63
2022-11-22T03:27:30.876Z,29.67
2022-11-22T03:30:02.230Z,29.67
2022-11-22T03:32:34.000Z,29.56
2022-11-22T03:35:06.051Z,29.69
2022-11-22T03:37:37.124Z,29.57
2022-11-22T03:40:09.011Z,29.76
2022-11-22T03:42:41.077Z,29.79
2022-11-22T03:45:12.632Z,29.71
2022-11-22T03:47:43.827Z,29.83
2022-11-22T03:50:14.988Z,29.77
2022-11-22T03:52:46.072Z,29.82
2022-11-22T03:55:17.291Z,29.91
2022-11-22T03:57:48.723Z,29.94
2022-11-22T04:00:20.574Z,29.97
2022-11-22T04:02:51.927Z,29.99
2022-11-22T04:05:23.800Z,30.01
2022-11-22T04:08:03.811Z,30.01
2022-11-22T04:10:34.968Z,30.08
2022-11-22T04:13:06.976Z,30.10
2022-11-22T04:15:39.406Z,30.09
2022-11-22T04:18:15.046Z,29.96
2022-11-22T04:21:04.426Z,30.11
2022-11-22T04:23:35.523Z,30.17
2022-11-22T04:26:06.720Z,30.13
2022-11-22T04:29:08.268Z,30.07
2022-11-22T04:31:47.318Z,30.19
2022-11-22T04:34:18.451Z,30.22
2022-11-22T04:36:50.040Z,30.24
2022-11-22T04:39:21.279Z,30.26
2022-11-22T04:42:16.070Z,29.83
2022-11-22T04:44:47.546Z,30.24
2022-11-22T04:47:38.309Z,29.76
2022-11-22T04:50:30.594Z,29.36
2022-11-22T04:53:01.798Z,30.26
2022-11-22T04:55:33.216Z,30.23
2022-11-22T04:58:04.834Z,30.30
2022-11-22T05:00:36.136Z,30.31
2022-11-22T05:03:07.805Z,30.31
2022-11-22T05:05:44.282Z,30.33
2022-11-22T05:08:16.199Z,30.33
2022-11-22T05:11:01.294Z,30.32
2022-11-22T05:13:41.473Z,30.35
2022-11-22T05:16:16.308Z,29.39
2022-11-22T05:19:00.400Z,30.34
2022-11-22T05:21:32.346Z,30.27
2022-11-22T05:24:04.264Z,30.06
2022-11-22T05:26:38.340Z,30.25
2022-11-22T05:29:11.881Z,30.35
2022-11-22T05:31:48.351Z,30.34
2022-11-22T05:34:22.317Z,30.35
2022-11-22T05:36:53.396Z,30.33
2022-11-22T05:39:24.441Z,30.32
2022-11-22T05:41:58.564Z,30.34
2022-11-22T05:44:29.899Z,30.35
2022-11-22T05:47:02.610Z,30.35
2022-11-22T05:49:34.698Z,30.36
2022-11-22T05:52:06.682Z,30.37
2022-11-22T05:54:37.379Z,30.04
2022-11-22T05:57:08.583Z,30.34
2022-11-22T05:59:43.960Z,30.35
2022-11-22T06:02:15.748Z,30.37
2022-11-22T06:04:46.974Z,30.37
2022-11-22T06:07:18.624Z,30.37
2022-11-22T06:09:49.761Z,30.37
2022-11-22T06:12:21.000Z,30.34
2022-11-22T06:14:52.332Z,30.34
2022-11-22T06:17:23.836Z,30.36
2022-11-22T06:19:54.928Z,30.31
2022-11-22T06:22:25.965Z,30.33
2022-11-22T06:24:57.205Z,30.38
2022-11-22T06:27:29.365Z,30.28
2022-11-22T06:30:00.446Z,30.36
2022-11-22T06:32:35.445Z,30.37
2022-11-22T06:35:06.721Z,30.36
2022-11-22T06:37:37.945Z,30.41
2022-11-22T06:40:13.023Z,30.39
2022-11-22T06:42:44.148Z,30.40
2022-11-22T06:45:15.246Z,30.34
2022-11-22T06:47:46.554Z,30.41
2022-11-22T06:50:21.782Z,30.41
2022-11-22T06:52:56.657Z,30.44
2022-11-22T06:55:49.500Z,30.44
2022-11-22T06:58:19.114Z,30.28
2022-11-22T07:00:50.676Z,30.03
2022-11-22T07:03:21.984Z,30.41
2022-11-22T07:05:54.079Z,30.41
2022-11-22T07:08:25.892Z,30.34
2022-11-22T07:10:57.079Z,30.42
2022-11-22T07:13:28.543Z,30.42
2022-11-22T07:16:02.540Z,30.42
2022-11-22T07:18:34.409Z,30.42
2022-11-22T07:21:12.255Z,30.43
2022-11-22T07:23:45.531Z,29.82
2022-11-22T07:26:18.213Z,30.41
2022-11-22T07:28:50.826Z,30.35
2022-11-22T07:31:22.769Z,30.42
2022-11-22T07:33:53.418Z,30.11
2022-11-22T07:36:24.744Z,30.38
2022-11-22T07:38:55.986Z,30.42
2022-11-22T07:41:27.433Z,30.39
2022-11-22T07:43:59.042Z,30.38
2022-11-22T07:46:32.837Z,30.38
2022-11-22T07:49:04.506Z,30.39
2022-11-22T07:51:35.931Z,30.21
2022-11-22T07:54:07.139Z,30.23
2022-11-22T07:56:38.330Z,30.28
2022-11-22T07:59:09.467Z,30.25
2022-11-22T08:01:40.648Z,30.23
2022-11-22T08:04:11.815Z,30.29
2022-11-22T08:06:43.045Z,30.28
2022-11-22T08:09:14.251Z,30.12
2022-11-22T08:11:45.520Z,30.08
2022-11-22T08:14:16.754Z,30.18
2022-11-22T08:16:48.208Z,30.20
2022-11-22T08:19:20.915Z,30.28
2022-11-22T08:21:58.140Z,30.27
2022-11-22T08:24:29.663Z,30.27
2022-11-22T08:27:00.710Z,30.12
2022-11-22T08:29:33.790Z,30.21
2022-11-22T08:32:04.879Z,30.00
2022-11-22T08:34:38.142Z,30.23
2022-11-22T08:37:10.038Z,30.26
2022-11-22T08:39:41.285Z,29.95
2022-11-22T08:42:12.946Z,30.22
2022-11-22T08:44:44.201Z,30.23
2022-11-22T08:47:15.220Z,30.07
2022-11-22T08:49:46.541Z,30.19
2022-11-22T08:52:17.681Z,29.79
2022-11-22T08:54:51.952Z,30.18
2022-11-22T08:57:23.112Z,30.16
2022-11-22T08:59:54.412Z,30.15
2022-11-22T09:02:25.854Z,30.15
2022-11-22T09:04:56.940Z,30.15
2022-11-22T09:10:19.066Z,30.10
2022-11-22T09:12:50.508Z,30.16
2022-11-22T09:15:21.577Z,30.05
2022-11-22T09:17:53.044Z,29.90
2022-11-22T09:20:24.482Z,29.86
2022-11-22T09:22:55.809Z,29.78
2022-11-22T09:25:26.999Z,29.72
2022-11-22T09:28:01.449Z,29.71
2022-11-22T09:30:33.526Z,29.68
2022-11-22T09:33:05.457Z,29.67
2022-11-22T09:35:36.635Z,29.61
2022-11-22T09:38:09.849Z,29.60
2022-11-22T09:40:41.008Z,29.59
2022-11-22T09:43:53.568Z,29.40
2022-11-22T09:46:34.218Z,29.31
2022-11-22T09:49:29.078Z,28.59
2022-11-22T09:52:22.793Z,29.54
2022-11-22T09:54:59.585Z,29.52
2022-11-22T09:57:49.609Z,29.45
2022-11-22T10:00:29.266Z,29.05
2022-11-22T10:03:12.256Z,29.53
2022-11-22T10:06:00.015Z,29.50
2022-11-22T10:08:49.382Z,29.45
2022-11-22T10:11:59.209Z,29.43
2022-11-22T10:14:46.443Z,29.33
2022-11-22T10:17:20.190Z,29.48
2022-11-22T10:20:05.654Z,29.49
2022-11-22T10:22:37.531Z,29.46
2022-11-22T10:25:34.428Z,29.40
2022-11-22T10:28:41.141Z,29.36
2022-11-22T10:31:25.173Z,29.45
2022-11-22T10:33:57.452Z,29.46
2022-11-22T10:36:38.580Z,28.91
2022-11-22T10:39:32.967Z,29.43
2022-11-22T10:42:21.397Z,29.47
2022-11-22T10:45:37.767Z,29.40
2022-11-22T10:48:18.008Z,29.43
2022-11-22T10:50:55.090Z,29.43
2022-11-22T10:53:51.464Z,29.42
2022-11-22T10:56:43.670Z,29.41
2022-11-22T10:59:48.639Z,29.34
2022-11-22T11:02:55.294Z,29.23
2022-11-22T11:05:37.441Z,29.47
2022-11-22T11:08:39.221Z,29.18
2022-11-22T11:11:04.519Z,29.48
2022-11-22T11:13:46.258Z,29.10
2022-11-22T11:16:24.921Z,29.55
2022-11-22T11:19:14.651Z,29.58
2022-11-22T11:21:47.171Z,29.59
2022-11-22T11:24:19.094Z,29.60
2022-11-22T11:26:59.019Z,29.60
2022-11-22T11:29:49.878Z,29.52
2022-11-22T11:32:22.766Z,29.47
2022-11-22T11:35:06.004Z,29.61
2022-11-22T11:37:39.207Z,29.09
2022-11-22T11:40:34.556Z,29.51
2022-11-22T11:43:21.671Z,29.60
2022-11-22T11:45:53.670Z,29.48
2022-11-22T11:48:30.378Z,29.59
2022-11-22T11:51:18.712Z,29.39
2022-11-22T11:53:58.632Z,29.58
2022-11-22T11:56:35.376Z,29.58
2022-11-22T11:59:13.863Z,29.50
2022-11-22T12:02:07.070Z,29.50
2022-11-22T12:04:49.983Z,29.39
2022-11-22T12:07:32.361Z,29.41
2022-11-22T12:10:24.872Z,29.40
2022-11-22T12:13:04.205Z,29.36
2022-11-22T12:15:47.941Z,29.34
2022-11-22T12:18:37.339Z,29.40
2022-11-22T12:21:28.425Z,29.37
2022-11-22T12:25:02.866Z,29.33
2022-11-22T12:27:18.288Z,29.35
2022-11-22T12:29:49.798Z,29.39
2022-11-22T12:32:59.954Z,29.27
2022-11-22T12:35:43.075Z,28.85
2022-11-22T12:38:25.300Z,29.34
2022-11-22T12:41:02.354Z,29.33
2022-11-22T12:43:49.399Z,29.32
2022-11-22T12:46:46.128Z,29.34
2022-11-22T12:49:31.903Z,28.76
2022-11-22T12:52:44.956Z,29.28
2022-11-22T12:55:36.916Z,28.67
2022-11-22T12:58:37.219Z,29.31
2022-11-22T13:01:22.755Z,29.22
2022-11-22T13:04:06.339Z,29.31
2022-11-22T13:06:59.502Z,29.28
2022-11-22T13:09:37.444Z,29.14
2022-11-22T13:12:14.127Z,29.33
2022-11-22T13:14:51.453Z,29.29
2022-11-22T13:17:24.761Z,29.34
2022-11-22T13:20:11.519Z,29.32
2022-11-22T13:22:58.701Z,29.26
2022-11-22T13:25:39.154Z,29.38
2022-11-22T13:28:20.543Z,29.37
2022-11-22T13:31:12.177Z,29.28
2022-11-22T13:33:56.543Z,28.83
2022-11-22T13:36:34.073Z,29.42
2022-11-22T13:39:14.237Z,29.46
2022-11-22T13:42:04.817Z,29.46
2022-11-22T13:44:40.745Z,28.52
2022-11-22T13:47:15.147Z,29.47
2022-11-22T13:49:50.271Z,29.47
2022-11-22T13:52:22.235Z,29.42
2022-11-22T13:54:58.510Z,29.42
2022-11-22T13:57:37.068Z,29.46
2022-11-22T14:00:17.274Z,29.42
2022-11-22T14:03:15.250Z,29.29
2022-11-22T14:05:51.520Z,29.30
2022-11-22T14:08:45.519Z,29.02
2022-11-22T14:11:22.745Z,29.11
2022-11-22T14:14:23.665Z,28.60
2022-11-22T14:17:07.651Z,28.58
2022-11-22T14:19:58.774Z,28.50
2022-11-22T14:22:46.214Z,28.72
2022-11-22T14:25:53.387Z,28.22
2022-11-22T14:28:34.000Z,28.73
2022-11-22T14:31:35.357Z,28.27
2022-11-22T14:34:23.083Z,28.51
2022-11-22T14:37:12.618Z,28.52
2022-11-22T14:39:54.689Z,28.52
2022-11-22T14:42:38.403Z,28.47
2022-11-22T14:45:12.836Z,28.49
2022-11-22T14:47:53.883Z,28.13
2022-11-22T14:50:39.375Z,28.40
2022-11-22T14:53:22.576Z,28.37
2022-11-22T14:56:05.472Z,28.38
2022-11-22T14:58:45.807Z,28.16
2022-11-22T15:01:41.708Z,28.28
2022-11-22T15:09:11.064Z,27.98
2022-11-22T15:09:17.860Z,28.20
2022-11-22T15:10:42.628Z,28.14
2022-11-22T15:13:33.385Z,27.54
2022-11-22T15:59:48.415Z,28.02
2022-11-22T16:02:24.087Z,28.14
2022-11-22T16:06:07.663Z,27.70
2022-11-22T16:07:51.174Z,27.89
2022-11-22T16:10:34.626Z,27.73
2022-11-22T16:13:23.764Z,28.13
2022-11-22T16:16:13.067Z,28.11
2022-11-22T16:18:45.617Z,27.61
2022-11-22T16:21:24.034Z,28.16
2022-11-22T16:24:18.065Z,28.09
2022-11-22T16:26:58.063Z,27.72
2022-11-22T16:29:33.485Z,28.19
2022-11-22T16:32:13.786Z,27.82
2022-11-22T16:34:46.922Z,28.14
2022-11-22T16:37:41.373Z,27.98
2022-11-22T16:40:16.592Z,28.04
2022-11-22T16:42:47.754Z,28.15
2022-11-22T16:45:22.273Z,27.61
2022-11-22T16:48:24.114Z,28.13
2022-11-22T16:50:47.849Z,28.09
2022-11-22T16:53:27.501Z,28.06
2022-11-22T16:55:58.594Z,28.00
2022-11-22T16:58:31.178Z,27.62
2022-11-22T17:01:04.464Z,28.03
2022-11-22T17:03:40.378Z,27.63
2022-11-22T17:06:23.854Z,27.72
2022-11-22T17:08:57.180Z,28.18
2022-11-22T17:11:31.493Z,27.72
2022-11-22T17:14:02.790Z,28.19
2022-11-22T17:16:34.007Z,28.18
2022-11-22T17:19:05.557Z,28.08
2022-11-22T17:21:38.060Z,27.78
2022-11-22T17:24:20.704Z,27.60
2022-11-22T17:26:51.884Z,28.10
2022-11-22T17:32:15.180Z,28.06
2022-11-22T17:34:46.265Z,28.03
2022-11-22T17:37:17.328Z,28.00
2022-11-22T17:39:52.465Z,28.00
2022-11-22T17:42:25.428Z,27.98
2022-11-22T17:44:56.542Z,27.60
2022-11-22T17:47:29.014Z,27.95
2022-11-22T17:50:00.144Z,27.94
2022-11-22T17:52:31.576Z,27.80
2022-11-22T17:55:06.185Z,27.88
2022-11-22T17:57:39.462Z,27.80
2022-11-22T18:00:11.450Z,27.75
2022-11-22T18:02:43.404Z,27.84
2022-11-22T18:05:15.025Z,27.80
2022-11-22T18:07:46.231Z,27.73
2022-11-22T18:10:17.430Z,27.79
2022-11-22T18:13:13.455Z,27.76
2022-11-22T18:15:40.634Z,27.61
2022-11-22T18:18:21.933Z,27.41
2022-11-22T18:21:02.143Z,27.71
2022-11-22T18:23:38.568Z,27.73
2022-11-22T18:31:54.903Z,27.68
2022-11-22T18:34:26.566Z,27.66
2022-11-22T18:37:03.189Z,27.67
2022-11-22T18:39:40.228Z,27.22
2022-11-22T18:42:16.346Z,27.54
2022-11-22T18:44:47.492Z,27.65
2022-11-22T18:47:18.634Z,27.24
2022-11-22T18:49:49.879Z,27.48
2022-11-22T18:52:24.383Z,27.66
2022-11-22T18:54:57.623Z,27.69
2022-11-22T18:57:29.259Z,27.54
2022-11-22T19:00:00.590Z,27.54
2022-11-22T19:02:31.905Z,27.63
2022-11-22T19:05:03.498Z,27.52
2022-11-22T19:07:34.620Z,27.60
2022-11-22T19:10:06.314Z,27.56
2022-11-22T19:12:38.392Z,27.65
2022-11-22T19:15:10.132Z,27.63
2022-11-22T19:17:41.897Z,27.61
2022-11-22T19:20:39.386Z,27.61
2022-11-22T19:23:06.387Z,27.59
2022-11-22T19:25:37.129Z,27.27
2022-11-22T19:28:08.227Z,27.55
2022-11-22T19:30:42.918Z,27.48
2022-11-22T19:33:17.047Z,27.44
2022-11-22T19:36:02.617Z,27.35
2022-11-22T19:38:34.081Z,27.53
2022-11-22T19:41:10.434Z,27.46
2022-11-22T19:43:41.824Z,27.48
2022-11-22T19:46:14.176Z,27.47
2022-11-22T19:48:47.248Z,27.13
2022-11-22T19:51:18.710Z,27.36
2022-11-22T19:53:50.672Z,27.42
2022-11-22T19:56:22.873Z,26.87
2022-11-22T19:58:56.283Z,26.85
2022-11-22T20:01:29.418Z,27.42
2022-11-22T20:04:05.003Z,26.94
2022-11-22T20:06:37.838Z,27.06
2022-11-22T20:09:12.465Z,27.33
2022-11-22T20:11:45.721Z,27.40
2022-11-22T20:14:16.789Z,27.33
2022-11-22T20:16:47.930Z,27.42
2022-11-22T20:19:19.071Z,27.27
2022-11-22T20:21:51.113Z,27.32
2022-11-22T20:24:22.631Z,27.31
2022-11-22T20:26:53.681Z,27.36
2022-11-22T20:29:26.463Z,27.35
2022-11-22T20:31:58.196Z,27.36
2022-11-22T20:34:34.451Z,27.30
2022-11-22T20:37:05.667Z,27.35
2022-11-22T20:39:38.501Z,27.37
2022-11-22T20:42:33.785Z,27.35
2022-11-22T20:45:01.423Z,27.33
2022-11-22T20:47:33.369Z,27.32
2022-11-22T20:50:05.015Z,27.34
2022-11-22T20:52:36.268Z,27.24
2022-11-22T20:55:07.786Z,27.32
2022-11-22T20:57:39.872Z,27.22
2022-11-22T21:00:12.457Z,27.31
2022-11-22T21:02:43.570Z,27.30
2022-11-22T21:05:14.849Z,27.15
2022-11-22T21:07:46.609Z,27.31
2022-11-22T21:10:17.905Z,27.28
2022-11-22T21:12:48.949Z,27.29
2022-11-22T21:15:20.507Z,27.25
2022-11-22T21:18:23.206Z,27.27
2022-11-22T21:20:42.925Z,27.30
2022-11-22T21:23:15.107Z,26.71
2022-11-22T21:25:46.213Z,27.21
2022-11-22T21:28:17.426Z,27.25
2022-11-22T21:30:48.518Z,27.26
2022-11-22T21:33:19.596Z,27.26
2022-11-22T21:35:50.895Z,27.18
2022-11-22T21:38:30.982Z,27.23
2022-11-22T21:41:24.383Z,27.26
2022-11-22T21:43:55.778Z,26.89
2022-11-22T21:46:26.863Z,27.20
2022-11-22T21:48:58.585Z,26.90
2022-11-22T21:51:29.535Z,27.14
2022-11-22T21:54:05.114Z,27.27
2022-11-22T21:56:36.888Z,27.15
2022-11-22T21:59:08.086Z,27.26
2022-11-22T22:01:39.253Z,27.24
2022-11-22T22:04:10.384Z,27.20
2022-11-22T22:06:45.818Z,27.20
2022-11-22T22:09:17.242Z,27.18
2022-11-22T22:11:49.442Z,27.07
2022-11-22T22:14:20.735Z,27.13
2022-11-22T22:16:52.750Z,27.05
2022-11-22T22:19:23.861Z,27.10
2022-11-22T22:21:55.122Z,27.06
2022-11-22T22:24:26.804Z,27.05
2022-11-22T22:26:57.992Z,27.05
2022-11-22T22:29:29.529Z,26.85
2022-11-22T22:32:01.917Z,27.05
2022-11-22T22:34:37.595Z,26.97
2022-11-22T22:37:08.661Z,26.76
2022-11-22T22:39:39.919Z,27.00
2022-11-22T22:42:11.424Z,26.98
2022-11-22T22:44:42.630Z,26.85
2022-11-22T22:47:14.169Z,26.89
2022-11-22T22:49:45.287Z,26.92
2022-11-22T22:52:16.598Z,26.93
2022-11-22T22:54:47.739Z,26.82
2022-11-22T22:57:18.870Z,26.97
2022-11-22T22:59:49.882Z,26.88
2022-11-22T23:02:21.086Z,26.93
2022-11-22T23:04:52.524Z,26.98
2022-11-22T23:07:23.813Z,27.04
2022-11-22T23:09:55.355Z,27.09
2022-11-22T23:12:26.384Z,27.13
2022-11-22T23:14:57.493Z,27.16
2022-11-22T23:17:28.815Z,27.28
2022-11-22T23:20:00.428Z,27.33
2022-11-22T23:22:31.871Z,27.38
2022-11-22T23:25:03.192Z,27.45
2022-11-22T23:27:34.634Z,27.39
2022-11-22T23:30:06.758Z,27.55
2022-11-22T23:32:38.302Z,27.65
2022-11-22T23:35:09.918Z,27.58
2022-11-22T23:37:41.441Z,27.81
2022-11-22T23:40:13.161Z,27.88
2022-11-22T23:42:44.270Z,27.88
2022-11-22T23:45:15.477Z,28.09
2022-11-22T23:47:46.722Z,28.14
2022-11-22T23:50:18.238Z,28.20
2022-11-22T23:52:49.677Z,28.17
2022-11-22T23:55:20.965Z,28.17
2022-11-22T23:57:52.654Z,28.29
